Camelia, Kentucky
Current Conditions -  °F | °C
As of 4:53 PM on Wednesday 26 Nov 2014 (Local Time) from KPAH Reporting Station
Light Rain Light Rain  
Wind Chill: 35°   Ceiling: 1400
Heat Index: 39°   Visibility: 5mi
Dew Point: 35°   Wind: 6mph
Humidity: 86%   Direction: 230°SW
Pressure: 30.01"   Gusts: NA
Location:  37.0919°N, 88.7716°W
Report Text: KPAH 262253Z 23005KT 5SM -RA BR OVC014 04/02 A3001 RMK AO2 SLP166 P0004 T00390017
Loading
Personal Weather Stations






























Interactive Weather Map New forecast layout! Learn more

10-Day Weather Forecast

Advertisements
Track Severe Weather on mobile